sensor_id;sensor_type;location;lat;lon;timestamp;temperature;humidity
11559;DHT22;5835;42.930;25.178;2023-04-24T00:01:38;8.20;1.00
11559;DHT22;5835;42.930;25.178;2023-04-24T00:04:06;8.30;1.00
11559;DHT22;5835;42.930;25.178;2023-04-24T00:06:36;8.10;1.00
11559;DHT22;5835;42.930;25.178;2023-04-24T00:09:04;8.00;1.00
11559;DHT22;5835;42.930;25.178;2023-04-24T00:11:33;7.90;1.00
11559;DHT22;5835;42.930;25.178;2023-04-24T00:14:01;7.60;1.00
11559;DHT22;5835;42.930;25.178;2023-04-24T00:16:29;7.30;90.00
11559;DHT22;5835;42.930;25.178;2023-04-24T00:18:57;7.20;99.90
11559;DHT22;5835;42.930;25.178;2023-04-24T00:21:26;7.20;99.90
11559;DHT22;5835;42.930;25.178;2023-04-24T00:23:54;7.30;76.30
11559;DHT22;5835;42.930;25.178;2023-04-24T00:26:21;7.40;20.70
11559;DHT22;5835;42.930;25.178;2023-04-24T00:28:50;7.40;9.50
11559;DHT22;5835;42.930;25.178;2023-04-24T00:31:18;7.40;16.00
11559;DHT22;5835;42.930;25.178;2023-04-24T00:33:45;7.40;26.60
11559;DHT22;5835;42.930;25.178;2023-04-24T00:36:13;7.30;41.90
11559;DHT22;5835;42.930;25.178;2023-04-24T00:38:40;7.30;47.50
11559;DHT22;5835;42.930;25.178;2023-04-24T00:41:08;7.30;61.40
11559;DHT22;5835;42.930;25.178;2023-04-24T00:43:35;7.30;57.80
11559;DHT22;5835;42.930;25.178;2023-04-24T00:46:05;7.30;52.60
11559;DHT22;5835;42.930;25.178;2023-04-24T00:48:32;7.40;34.90
11559;DHT22;5835;42.930;25.178;2023-04-24T00:51:00;7.40;24.40
11559;DHT22;5835;42.930;25.178;2023-04-24T00:53:28;7.40;12.60
11559;DHT22;5835;42.930;25.178;2023-04-24T00:55:56;7.40;11.80
11559;DHT22;5835;42.930;25.178;2023-04-24T00:58:24;7.30;27.50
11559;DHT22;5835;42.930;25.178;2023-04-24T01:00:53;7.10;72.90
11559;DHT22;5835;42.930;25.178;2023-04-24T01:03:25;6.90;99.90
11559;DHT22;5835;42.930;25.178;2023-04-24T01:05:54;6.90;99.90
11559;DHT22;5835;42.930;25.178;2023-04-24T01:08:23;6.70;99.90
11559;DHT22;5835;42.930;25.178;2023-04-24T01:10:52;6.60;99.90
11559;DHT22;5835;42.930;25.178;2023-04-24T01:13:20;6.50;99.90
11559;DHT22;5835;42.930;25.178;2023-04-24T01:15:48;6.50;99.90
11559;DHT22;5835;42.930;25.178;2023-04-24T01:18:16;6.50;99.90
11559;DHT22;5835;42.930;25.178;2023-04-24T01:20:45;6.50;99.90
11559;DHT22;5835;42.930;25.178;2023-04-24T01:23:14;6.60;99.90
11559;DHT22;5835;42.930;25.178;2023-04-24T01:25:42;6.50;99.90
11559;DHT22;5835;42.930;25.178;2023-04-24T01:28:11;6.50;99.90
11559;DHT22;5835;42.930;25.178;2023-04-24T01:30:39;6.40;99.90
11559;DHT22;5835;42.930;25.178;2023-04-24T01:33:07;6.40;99.90
11559;DHT22;5835;42.930;25.178;2023-04-24T01:35:35;6.50;99.90
11559;DHT22;5835;42.930;25.178;2023-04-24T01:38:03;6.60;99.90
11559;DHT22;5835;42.930;25.178;2023-04-24T01:40:33;6.70;99.90
11559;DHT22;5835;42.930;25.178;2023-04-24T01:43:01;6.80;99.90
11559;DHT22;5835;42.930;25.178;2023-04-24T01:45:29;6.80;99.90
11559;DHT22;5835;42.930;25.178;2023-04-24T01:47:56;6.90;99.90
11559;DHT22;5835;42.930;25.178;2023-04-24T01:50:24;6.90;99.90
11559;DHT22;5835;42.930;25.178;2023-04-24T01:52:51;6.90;99.90
11559;DHT22;5835;42.930;25.178;2023-04-24T01:55:19;6.90;99.90
11559;DHT22;5835;42.930;25.178;2023-04-24T01:57:49;6.90;99.90
11559;DHT22;5835;42.930;25.178;2023-04-24T02:00:17;7.00;99.90
11559;DHT22;5835;42.930;25.178;2023-04-24T02:02:44;7.10;99.90
11559;DHT22;5835;42.930;25.178;2023-04-24T02:05:12;7.30;99.90
11559;DHT22;5835;42.930;25.178;2023-04-24T02:07:40;7.30;99.90
11559;DHT22;5835;42.930;25.178;2023-04-24T02:10:08;7.20;99.90
11559;DHT22;5835;42.930;25.178;2023-04-24T02:12:36;7.20;99.90
11559;DHT22;5835;42.930;25.178;2023-04-24T02:15:06;7.30;99.90
11559;DHT22;5835;42.930;25.178;2023-04-24T02:17:34;7.10;99.90
11559;DHT22;5835;42.930;25.178;2023-04-24T02:20:02;7.00;99.90
11559;DHT22;5835;42.930;25.178;2023-04-24T02:22:30;6.80;99.90
11559;DHT22;5835;42.930;25.178;2023-04-24T02:24:58;6.70;99.90
11559;DHT22;5835;42.930;25.178;2023-04-24T02:27:25;6.70;99.90
11559;DHT22;5835;42.930;25.178;2023-04-24T02:29:53;6.70;99.90
11559;DHT22;5835;42.930;25.178;2023-04-24T02:32:22;6.90;99.90
11559;DHT22;5835;42.930;25.178;2023-04-24T02:34:49;7.00;99.90
11559;DHT22;5835;42.930;25.178;2023-04-24T02:37:17;6.90;99.90
11559;DHT22;5835;42.930;25.178;2023-04-24T02:39:44;6.80;99.90
11559;DHT22;5835;42.930;25.178;2023-04-24T02:42:12;6.80;99.90
11559;DHT22;5835;42.930;25.178;2023-04-24T02:44:39;6.80;99.90
11559;DHT22;5835;42.930;25.178;2023-04-24T02:47:07;6.80;99.90
11559;DHT22;5835;42.930;25.178;2023-04-24T02:49:36;6.90;99.90
11559;DHT22;5835;42.930;25.178;2023-04-24T02:52:04;7.10;99.90
11559;DHT22;5835;42.930;25.178;2023-04-24T02:54:31;7.20;99.90
11559;DHT22;5835;42.930;25.178;2023-04-24T02:56:59;7.20;99.90
11559;DHT22;5835;42.930;25.178;2023-04-24T02:59:27;6.90;99.90
11559;DHT22;5835;42.930;25.178;2023-04-24T03:01:54;6.80;99.90
11559;DHT22;5835;42.930;25.178;2023-04-24T03:04:22;6.90;99.90
11559;DHT22;5835;42.930;25.178;2023-04-24T03:06:52;7.00;99.90
11559;DHT22;5835;42.930;25.178;2023-04-24T03:09:20;7.30;99.90
11559;DHT22;5835;42.930;25.178;2023-04-24T03:11:48;7.30;99.90
11559;DHT22;5835;42.930;25.178;2023-04-24T03:14:15;7.30;99.90
11559;DHT22;5835;42.930;25.178;2023-04-24T03:16:43;7.20;99.90
11559;DHT22;5835;42.930;25.178;2023-04-24T03:19:11;7.20;99.90
11559;DHT22;5835;42.930;25.178;2023-04-24T03:21:39;7.30;99.90
11559;DHT22;5835;42.930;25.178;2023-04-24T03:24:08;7.30;99.90
11559;DHT22;5835;42.930;25.178;2023-04-24T03:26:36;7.20;99.90
11559;DHT22;5835;42.930;25.178;2023-04-24T03:29:04;6.70;99.90
11559;DHT22;5835;42.930;25.178;2023-04-24T03:31:31;6.60;99.90
11559;DHT22;5835;42.930;25.178;2023-04-24T03:33:59;6.60;99.90
11559;DHT22;5835;42.930;25.178;2023-04-24T03:36:28;6.10;99.90
11559;DHT22;5835;42.930;25.178;2023-04-24T03:38:56;6.10;99.90
11559;DHT22;5835;42.930;25.178;2023-04-24T03:41:25;6.20;99.90
11559;DHT22;5835;42.930;25.178;2023-04-24T03:43:53;6.40;99.90
11559;DHT22;5835;42.930;25.178;2023-04-24T03:46:21;6.50;99.90
11559;DHT22;5835;42.930;25.178;2023-04-24T03:48:48;6.60;99.90
11559;DHT22;5835;42.930;25.178;2023-04-24T03:51:16;6.70;99.90
11559;DHT22;5835;42.930;25.178;2023-04-24T03:53:44;6.70;99.90
11559;DHT22;5835;42.930;25.178;2023-04-24T03:56:11;6.70;99.90
11559;DHT22;5835;42.930;25.178;2023-04-24T03:58:40;6.80;99.90
11559;DHT22;5835;42.930;25.178;2023-04-24T04:01:08;6.80;99.90
11559;DHT22;5835;42.930;25.178;2023-04-24T04:03:36;6.90;99.90
11559;DHT22;5835;42.930;25.178;2023-04-24T04:06:04;7.00;99.90
11559;DHT22;5835;42.930;25.178;2023-04-24T04:08:31;7.20;99.90
11559;DHT22;5835;42.930;25.178;2023-04-24T04:10:59;7.20;99.90
11559;DHT22;5835;42.930;25.178;2023-04-24T04:13:26;7.20;99.90
11559;DHT22;5835;42.930;25.178;2023-04-24T04:15:55;7.10;99.90
11559;DHT22;5835;42.930;25.178;2023-04-24T04:18:22;7.20;99.90
11559;DHT22;5835;42.930;25.178;2023-04-24T04:20:52;7.40;99.90
11559;DHT22;5835;42.930;25.178;2023-04-24T04:23:20;7.60;99.90
11559;DHT22;5835;42.930;25.178;2023-04-24T04:25:47;7.70;99.90
11559;DHT22;5835;42.930;25.178;2023-04-24T04:28:15;7.70;99.90
11559;DHT22;5835;42.930;25.178;2023-04-24T04:30:45;7.80;99.90
11559;DHT22;5835;42.930;25.178;2023-04-24T04:33:14;8.10;99.90
11559;DHT22;5835;42.930;25.178;2023-04-24T04:35:42;8.10;99.90
11559;DHT22;5835;42.930;25.178;2023-04-24T04:38:09;8.30;99.90
11559;DHT22;5835;42.930;25.178;2023-04-24T04:40:37;8.30;99.90
11559;DHT22;5835;42.930;25.178;2023-04-24T04:43:04;8.30;99.90
11559;DHT22;5835;42.930;25.178;2023-04-24T04:45:32;8.30;99.90
11559;DHT22;5835;42.930;25.178;2023-04-24T04:48:00;8.30;99.90
11559;DHT22;5835;42.930;25.178;2023-04-24T04:50:29;8.40;99.90
11559;DHT22;5835;42.930;25.178;2023-04-24T04:52:57;8.50;99.90
11559;DHT22;5835;42.930;25.178;2023-04-24T04:55:25;8.60;99.90
11559;DHT22;5835;42.930;25.178;2023-04-24T04:57:52;8.80;99.90
11559;DHT22;5835;42.930;25.178;2023-04-24T05:00:21;8.80;99.90
11559;DHT22;5835;42.930;25.178;2023-04-24T05:02:51;9.00;99.90
11559;DHT22;5835;42.930;25.178;2023-04-24T05:05:19;9.10;93.20
11559;DHT22;5835;42.930;25.178;2023-04-24T05:07:48;9.30;83.60
11559;DHT22;5835;42.930;25.178;2023-04-24T05:10:18;9.60;61.70
11559;DHT22;5835;42.930;25.178;2023-04-24T05:12:46;9.90;46.80
11559;DHT22;5835;42.930;25.178;2023-04-24T05:15:15;10.10;1.00
11559;DHT22;5835;42.930;25.178;2023-04-24T05:17:45;10.30;1.00
11559;DHT22;5835;42.930;25.178;2023-04-24T05:20:13;10.60;1.00
11559;DHT22;5835;42.930;25.178;2023-04-24T05:22:40;11.00;99.90
11559;DHT22;5835;42.930;25.178;2023-04-24T05:25:09;11.10;99.90
11559;DHT22;5835;42.930;25.178;2023-04-24T05:27:40;11.30;1.00
11559;DHT22;5835;42.930;25.178;2023-04-24T05:30:11;11.30;99.90
11559;DHT22;5835;42.930;25.178;2023-04-24T05:32:38;11.30;99.90
11559;DHT22;5835;42.930;25.178;2023-04-24T05:35:09;11.30;1.00
11559;DHT22;5835;42.930;25.178;2023-04-24T05:37:37;11.10;1.00
11559;DHT22;5835;42.930;25.178;2023-04-24T05:40:05;11.00;1.00
11559;DHT22;5835;42.930;25.178;2023-04-24T05:42:35;11.00;1.00
11559;DHT22;5835;42.930;25.178;2023-04-24T05:45:03;11.30;1.00
11559;DHT22;5835;42.930;25.178;2023-04-24T05:47:31;11.30;1.00
11559;DHT22;5835;42.930;25.178;2023-04-24T05:49:58;11.60;1.00
11559;DHT22;5835;42.930;25.178;2023-04-24T05:52:26;12.10;1.00
11559;DHT22;5835;42.930;25.178;2023-04-24T05:54:54;12.40;99.90
11559;DHT22;5835;42.930;25.178;2023-04-24T05:57:21;12.70;99.90
11559;DHT22;5835;42.930;25.178;2023-04-24T05:59:53;12.90;1.00
11559;DHT22;5835;42.930;25.178;2023-04-24T06:02:25;13.10;1.00
11559;DHT22;5835;42.930;25.178;2023-04-24T06:04:58;13.20;1.00
11559;DHT22;5835;42.930;25.178;2023-04-24T06:07:29;13.40;1.00
11559;DHT22;5835;42.930;25.178;2023-04-24T06:09:59;13.40;99.90
11559;DHT22;5835;42.930;25.178;2023-04-24T06:12:27;13.60;99.90
11559;DHT22;5835;42.930;25.178;2023-04-24T06:14:56;13.70;99.90
11559;DHT22;5835;42.930;25.178;2023-04-24T06:17:23;13.90;99.90
11559;DHT22;5835;42.930;25.178;2023-04-24T06:19:53;14.30;99.90
11559;DHT22;5835;42.930;25.178;2023-04-24T06:22:20;14.50;1.00
11559;DHT22;5835;42.930;25.178;2023-04-24T06:24:48;14.60;1.00
11559;DHT22;5835;42.930;25.178;2023-04-24T06:27:18;14.90;99.90
11559;DHT22;5835;42.930;25.178;2023-04-24T06:29:46;14.90;99.90
11559;DHT22;5835;42.930;25.178;2023-04-24T06:32:21;15.00;99.90
11559;DHT22;5835;42.930;25.178;2023-04-24T06:34:49;15.00;1.00
11559;DHT22;5835;42.930;25.178;2023-04-24T06:37:18;14.90;1.00
11559;DHT22;5835;42.930;25.178;2023-04-24T06:39:46;14.70;1.00
11559;DHT22;5835;42.930;25.178;2023-04-24T06:42:13;14.40;1.00
11559;DHT22;5835;42.930;25.178;2023-04-24T06:44:41;14.30;1.00
11559;DHT22;5835;42.930;25.178;2023-04-24T06:47:09;14.40;21.80
11559;DHT22;5835;42.930;25.178;2023-04-24T06:49:41;14.40;1.00
11559;DHT22;5835;42.930;25.178;2023-04-24T06:52:08;14.40;98.80
11559;DHT22;5835;42.930;25.178;2023-04-24T06:54:36;14.50;99.90
11559;DHT22;5835;42.930;25.178;2023-04-24T06:57:04;14.60;99.90
11559;DHT22;5835;42.930;25.178;2023-04-24T06:59:31;14.50;1.00
11559;DHT22;5835;42.930;25.178;2023-04-24T07:01:59;14.40;99.90
11559;DHT22;5835;42.930;25.178;2023-04-24T07:04:26;13.90;99.90
11559;DHT22;5835;42.930;25.178;2023-04-24T07:06:56;13.70;99.90
11559;DHT22;5835;42.930;25.178;2023-04-24T07:09:24;14.10;1.00
11559;DHT22;5835;42.930;25.178;2023-04-24T07:11:52;14.70;99.90
11559;DHT22;5835;42.930;25.178;2023-04-24T07:14:20;15.00;99.90
11559;DHT22;5835;42.930;25.178;2023-04-24T07:16:48;15.10;1.00
11559;DHT22;5835;42.930;25.178;2023-04-24T07:19:15;15.00;1.00
11559;DHT22;5835;42.930;25.178;2023-04-24T07:21:43;15.20;1.00
11559;DHT22;5835;42.930;25.178;2023-04-24T07:24:12;15.30;1.00
11559;DHT22;5835;42.930;25.178;2023-04-24T07:26:40;15.60;1.00
11559;DHT22;5835;42.930;25.178;2023-04-24T07:29:08;15.70;99.90
11559;DHT22;5835;42.930;25.178;2023-04-24T07:31:35;16.10;99.90
11559;DHT22;5835;42.930;25.178;2023-04-24T07:34:03;16.40;99.90
11559;DHT22;5835;42.930;25.178;2023-04-24T07:36:33;16.40;99.90
11559;DHT22;5835;42.930;25.178;2023-04-24T07:39:00;16.60;99.90
11559;DHT22;5835;42.930;25.178;2023-04-24T07:41:30;16.40;99.90
11559;DHT22;5835;42.930;25.178;2023-04-24T07:43:58;16.40;99.90
11559;DHT22;5835;42.930;25.178;2023-04-24T07:46:26;16.40;99.90
11559;DHT22;5835;42.930;25.178;2023-04-24T07:48:55;16.60;99.90
11559;DHT22;5835;42.930;25.178;2023-04-24T07:51:25;16.90;99.90
11559;DHT22;5835;42.930;25.178;2023-04-24T07:53:53;17.40;99.90
11559;DHT22;5835;42.930;25.178;2023-04-24T07:56:21;17.70;99.90
11559;DHT22;5835;42.930;25.178;2023-04-24T07:58:50;17.90;99.90
11559;DHT22;5835;42.930;25.178;2023-04-24T08:01:18;17.10;99.90
11559;DHT22;5835;42.930;25.178;2023-04-24T08:03:46;16.80;99.90
11559;DHT22;5835;42.930;25.178;2023-04-24T08:06:16;16.70;99.90
11559;DHT22;5835;42.930;25.178;2023-04-24T08:08:43;16.70;99.90
11559;DHT22;5835;42.930;25.178;2023-04-24T08:11:11;16.60;99.90
11559;DHT22;5835;42.930;25.178;2023-04-24T08:13:38;16.70;99.90
11559;DHT22;5835;42.930;25.178;2023-04-24T08:16:08;16.60;99.90
11559;DHT22;5835;42.930;25.178;2023-04-24T08:18:35;16.50;99.90
11559;DHT22;5835;42.930;25.178;2023-04-24T08:21:03;16.30;99.90
11559;DHT22;5835;42.930;25.178;2023-04-24T08:23:31;16.50;99.90
11559;DHT22;5835;42.930;25.178;2023-04-24T08:25:58;16.60;99.90
11559;DHT22;5835;42.930;25.178;2023-04-24T08:28:26;16.70;99.90
11559;DHT22;5835;42.930;25.178;2023-04-24T08:30:53;16.90;99.90
11559;DHT22;5835;42.930;25.178;2023-04-24T08:33:22;17.00;99.90
11559;DHT22;5835;42.930;25.178;2023-04-24T08:35:50;17.30;99.90
11559;DHT22;5835;42.930;25.178;2023-04-24T08:38:18;17.50;99.90
11559;DHT22;5835;42.930;25.178;2023-04-24T08:40:47;17.60;99.90
11559;DHT22;5835;42.930;25.178;2023-04-24T08:43:16;18.00;99.90
11559;DHT22;5835;42.930;25.178;2023-04-24T08:45:44;18.30;99.90
11559;DHT22;5835;42.930;25.178;2023-04-24T08:48:12;18.40;99.90
11559;DHT22;5835;42.930;25.178;2023-04-24T08:50:42;18.30;99.90
11559;DHT22;5835;42.930;25.178;2023-04-24T08:53:11;18.50;99.90
11559;DHT22;5835;42.930;25.178;2023-04-24T08:55:39;18.30;99.90
11559;DHT22;5835;42.930;25.178;2023-04-24T08:58:10;18.30;99.90
11559;DHT22;5835;42.930;25.178;2023-04-24T09:00:39;18.70;99.90
11559;DHT22;5835;42.930;25.178;2023-04-24T09:03:13;18.80;99.90
11559;DHT22;5835;42.930;25.178;2023-04-24T09:05:44;18.70;99.90
11559;DHT22;5835;42.930;25.178;2023-04-24T09:08:13;18.80;99.90
11559;DHT22;5835;42.930;25.178;2023-04-24T09:10:41;19.00;99.90
11559;DHT22;5835;42.930;25.178;2023-04-24T09:13:09;19.00;99.90
11559;DHT22;5835;42.930;25.178;2023-04-24T09:15:37;19.20;99.90
11559;DHT22;5835;42.930;25.178;2023-04-24T09:18:05;19.20;68.00
11559;DHT22;5835;42.930;25.178;2023-04-24T09:20:33;19.40;56.00
11559;DHT22;5835;42.930;25.178;2023-04-24T09:23:03;19.50;93.90
11559;DHT22;5835;42.930;25.178;2023-04-24T09:25:33;19.40;76.60
11559;DHT22;5835;42.930;25.178;2023-04-24T09:28:03;19.60;56.00
11559;DHT22;5835;42.930;25.178;2023-04-24T09:30:32;19.80;38.60
11559;DHT22;5835;42.930;25.178;2023-04-24T09:33:13;19.80;67.80
11559;DHT22;5835;42.930;25.178;2023-04-24T09:35:43;19.90;15.10
11559;DHT22;5835;42.930;25.178;2023-04-24T09:38:17;20.30;28.70
11559;DHT22;5835;42.930;25.178;2023-04-24T09:40:45;20.50;24.80
11559;DHT22;5835;42.930;25.178;2023-04-24T09:43:12;20.60;1.00
11559;DHT22;5835;42.930;25.178;2023-04-24T09:45:40;20.80;1.00
11559;DHT22;5835;42.930;25.178;2023-04-24T09:48:09;20.70;1.00
11559;DHT22;5835;42.930;25.178;2023-04-24T09:50:37;20.60;1.00
11559;DHT22;5835;42.930;25.178;2023-04-24T09:53:05;20.80;1.00
11559;DHT22;5835;42.930;25.178;2023-04-24T09:55:39;20.90;1.00
11559;DHT22;5835;42.930;25.178;2023-04-24T09:58:08;21.20;1.00
11559;DHT22;5835;42.930;25.178;2023-04-24T10:00:39;21.50;1.00
11559;DHT22;5835;42.930;25.178;2023-04-24T10:03:07;21.10;1.00
11559;DHT22;5835;42.930;25.178;2023-04-24T10:05:37;21.10;1.00
11559;DHT22;5835;42.930;25.178;2023-04-24T10:08:06;21.10;1.00
11559;DHT22;5835;42.930;25.178;2023-04-24T10:10:40;21.00;1.00
11559;DHT22;5835;42.930;25.178;2023-04-24T10:13:09;21.20;1.00
11559;DHT22;5835;42.930;25.178;2023-04-24T10:15:37;20.70;1.00
11559;DHT22;5835;42.930;25.178;2023-04-24T10:18:05;21.10;1.00
11559;DHT22;5835;42.930;25.178;2023-04-24T10:20:35;20.20;1.00
11559;DHT22;5835;42.930;25.178;2023-04-24T10:23:03;18.60;1.00
11559;DHT22;5835;42.930;25.178;2023-04-24T10:25:33;17.50;1.00
11559;DHT22;5835;42.930;25.178;2023-04-24T10:28:03;16.80;1.00
11559;DHT22;5835;42.930;25.178;2023-04-24T10:30:33;17.50;99.90
11559;DHT22;5835;42.930;25.178;2023-04-24T10:33:02;18.30;1.00
11559;DHT22;5835;42.930;25.178;2023-04-24T10:35:35;19.00;99.90
11559;DHT22;5835;42.930;25.178;2023-04-24T10:38:06;19.60;1.00
11559;DHT22;5835;42.930;25.178;2023-04-24T10:40:38;19.00;99.90
11559;DHT22;5835;42.930;25.178;2023-04-24T10:43:10;19.20;1.00
11559;DHT22;5835;42.930;25.178;2023-04-24T10:45:38;19.40;99.90
11559;DHT22;5835;42.930;25.178;2023-04-24T10:48:07;20.00;1.00
11559;DHT22;5835;42.930;25.178;2023-04-24T10:50:43;20.60;99.90
11559;DHT22;5835;42.930;25.178;2023-04-24T10:53:16;21.00;36.90
11559;DHT22;5835;42.930;25.178;2023-04-24T10:55:46;21.30;1.00
11559;DHT22;5835;42.930;25.178;2023-04-24T10:58:16;21.70;99.90
11559;DHT22;5835;42.930;25.178;2023-04-24T11:00:44;21.10;99.90
11559;DHT22;5835;42.930;25.178;2023-04-24T11:03:26;20.90;99.90
11559;DHT22;5835;42.930;25.178;2023-04-24T11:05:57;20.80;99.90
11559;DHT22;5835;42.930;25.178;2023-04-24T11:08:30;21.50;99.90
11559;DHT22;5835;42.930;25.178;2023-04-24T11:11:03;21.50;99.90
11559;DHT22;5835;42.930;25.178;2023-04-24T11:14:03;21.60;99.90
11559;DHT22;5835;42.930;25.178;2023-04-24T11:16:38;21.50;99.90
11559;DHT22;5835;42.930;25.178;2023-04-24T11:19:07;21.70;99.90
11559;DHT22;5835;42.930;25.178;2023-04-24T11:21:42;21.60;99.90
11559;DHT22;5835;42.930;25.178;2023-04-24T11:24:27;21.60;99.90
11559;DHT22;5835;42.930;25.178;2023-04-24T11:26:58;21.60;99.90
11559;DHT22;5835;42.930;25.178;2023-04-24T11:29:42;21.60;99.90
11559;DHT22;5835;42.930;25.178;2023-04-24T11:32:18;21.80;99.90
11559;DHT22;5835;42.930;25.178;2023-04-24T11:34:47;22.10;99.90
11559;DHT22;5835;42.930;25.178;2023-04-24T11:37:14;22.00;89.00
11559;DHT22;5835;42.930;25.178;2023-04-24T11:39:42;21.80;91.50
11559;DHT22;5835;42.930;25.178;2023-04-24T11:42:10;21.90;76.30
11559;DHT22;5835;42.930;25.178;2023-04-24T11:44:38;21.90;36.10
11559;DHT22;5835;42.930;25.178;2023-04-24T11:47:10;21.70;19.80
11559;DHT22;5835;42.930;25.178;2023-04-24T11:49:38;21.60;1.00
11559;DHT22;5835;42.930;25.178;2023-04-24T11:52:06;22.00;1.00
11559;DHT22;5835;42.930;25.178;2023-04-24T11:54:34;21.60;1.00
11559;DHT22;5835;42.930;25.178;2023-04-24T11:57:04;21.50;1.00
11559;DHT22;5835;42.930;25.178;2023-04-24T11:59:38;21.60;1.00
11559;DHT22;5835;42.930;25.178;2023-04-24T12:02:06;21.70;1.00
11559;DHT22;5835;42.930;25.178;2023-04-24T12:04:41;22.00;1.00
11559;DHT22;5835;42.930;25.178;2023-04-24T12:07:08;22.40;1.00
11559;DHT22;5835;42.930;25.178;2023-04-24T12:09:43;22.80;1.00
11559;DHT22;5835;42.930;25.178;2023-04-24T12:12:15;22.60;1.00
11559;DHT22;5835;42.930;25.178;2023-04-24T12:14:44;23.30;1.00
11559;DHT22;5835;42.930;25.178;2023-04-24T12:17:12;23.50;1.00
11559;DHT22;5835;42.930;25.178;2023-04-24T12:19:46;23.70;1.00
11559;DHT22;5835;42.930;25.178;2023-04-24T12:22:14;23.60;1.00
11559;DHT22;5835;42.930;25.178;2023-04-24T12:24:58;23.70;1.00
11559;DHT22;5835;42.930;25.178;2023-04-24T12:29:56;23.90;1.00
11559;DHT22;5835;42.930;25.178;2023-04-24T12:32:24;24.00;1.00
11559;DHT22;5835;42.930;25.178;2023-04-24T12:34:54;24.10;1.00
11559;DHT22;5835;42.930;25.178;2023-04-24T12:37:23;24.20;1.00
11559;DHT22;5835;42.930;25.178;2023-04-24T12:40:02;23.90;1.00
11559;DHT22;5835;42.930;25.178;2023-04-24T12:42:30;23.40;1.00
11559;DHT22;5835;42.930;25.178;2023-04-24T12:44:59;23.50;1.00
11559;DHT22;5835;42.930;25.178;2023-04-24T12:47:27;24.20;1.00
11559;DHT22;5835;42.930;25.178;2023-04-24T12:49:56;24.80;1.00
11559;DHT22;5835;42.930;25.178;2023-04-24T12:52:24;24.80;1.00
11559;DHT22;5835;42.930;25.178;2023-04-24T12:54:53;24.90;1.00
11559;DHT22;5835;42.930;25.178;2023-04-24T12:57:21;24.20;1.00
11559;DHT22;5835;42.930;25.178;2023-04-24T12:59:49;24.20;1.00
11559;DHT22;5835;42.930;25.178;2023-04-24T13:02:17;24.10;1.00
11559;DHT22;5835;42.930;25.178;2023-04-24T13:04:45;23.80;1.00
11559;DHT22;5835;42.930;25.178;2023-04-24T13:07:14;23.30;1.00
11559;DHT22;5835;42.930;25.178;2023-04-24T13:09:44;23.60;1.00
11559;DHT22;5835;42.930;25.178;2023-04-24T13:12:12;24.10;1.00
11559;DHT22;5835;42.930;25.178;2023-04-24T13:14:42;24.60;1.00
11559;DHT22;5835;42.930;25.178;2023-04-24T13:17:09;24.50;1.00
11559;DHT22;5835;42.930;25.178;2023-04-24T13:19:39;24.40;1.00
11559;DHT22;5835;42.930;25.178;2023-04-24T13:22:09;24.20;1.00
11559;DHT22;5835;42.930;25.178;2023-04-24T13:24:38;24.70;1.00
11559;DHT22;5835;42.930;25.178;2023-04-24T13:27:07;24.70;1.00
11559;DHT22;5835;42.930;25.178;2023-04-24T13:29:34;24.60;1.00
11559;DHT22;5835;42.930;25.178;2023-04-24T13:32:02;25.20;1.00
11559;DHT22;5835;42.930;25.178;2023-04-24T13:34:31;25.10;1.00
11559;DHT22;5835;42.930;25.178;2023-04-24T13:37:00;25.50;1.00
11559;DHT22;5835;42.930;25.178;2023-04-24T13:39:29;25.10;1.00
11559;DHT22;5835;42.930;25.178;2023-04-24T13:41:58;24.40;1.00
11559;DHT22;5835;42.930;25.178;2023-04-24T13:44:26;24.90;1.00
11559;DHT22;5835;42.930;25.178;2023-04-24T13:46:55;25.60;1.00
11559;DHT22;5835;42.930;25.178;2023-04-24T13:49:23;25.90;1.00
11559;DHT22;5835;42.930;25.178;2023-04-24T13:51:52;25.70;1.00
11559;DHT22;5835;42.930;25.178;2023-04-24T13:54:20;25.80;1.00
11559;DHT22;5835;42.930;25.178;2023-04-24T13:56:49;26.00;1.00
11559;DHT22;5835;42.930;25.178;2023-04-24T13:59:18;25.70;1.00
11559;DHT22;5835;42.930;25.178;2023-04-24T14:01:46;25.60;1.00
11559;DHT22;5835;42.930;25.178;2023-04-24T14:04:13;25.70;1.00
11559;DHT22;5835;42.930;25.178;2023-04-24T14:06:41;25.30;1.00
11559;DHT22;5835;42.930;25.178;2023-04-24T14:09:08;25.40;1.00
11559;DHT22;5835;42.930;25.178;2023-04-24T14:11:36;25.20;1.00
11559;DHT22;5835;42.930;25.178;2023-04-24T14:14:05;25.00;1.00
11559;DHT22;5835;42.930;25.178;2023-04-24T14:16:35;24.30;1.00
11559;DHT22;5835;42.930;25.178;2023-04-24T14:19:02;24.20;1.00
11559;DHT22;5835;42.930;25.178;2023-04-24T14:21:31;24.20;1.00
11559;DHT22;5835;42.930;25.178;2023-04-24T14:23:59;24.20;1.00
11559;DHT22;5835;42.930;25.178;2023-04-24T14:26:27;24.00;1.00
11559;DHT22;5835;42.930;25.178;2023-04-24T14:28:54;24.00;1.00
11559;DHT22;5835;42.930;25.178;2023-04-24T14:31:22;24.00;1.00
11559;DHT22;5835;42.930;25.178;2023-04-24T14:33:52;24.00;1.00
11559;DHT22;5835;42.930;25.178;2023-04-24T14:36:21;23.60;1.00
11559;DHT22;5835;42.930;25.178;2023-04-24T14:38:49;23.30;1.00
11559;DHT22;5835;42.930;25.178;2023-04-24T14:41:17;23.10;1.00
11559;DHT22;5835;42.930;25.178;2023-04-24T14:43:44;23.00;1.00
11559;DHT22;5835;42.930;25.178;2023-04-24T14:46:12;22.60;1.00
11559;DHT22;5835;42.930;25.178;2023-04-24T14:48:40;22.60;1.00
11559;DHT22;5835;42.930;25.178;2023-04-24T14:51:09;22.40;1.00
11559;DHT22;5835;42.930;25.178;2023-04-24T14:53:36;22.20;1.00
11559;DHT22;5835;42.930;25.178;2023-04-24T14:56:07;21.90;1.00
11559;DHT22;5835;42.930;25.178;2023-04-24T14:58:35;21.80;1.00
11559;DHT22;5835;42.930;25.178;2023-04-24T15:01:05;21.60;1.00
11559;DHT22;5835;42.930;25.178;2023-04-24T15:03:33;21.50;1.00
11559;DHT22;5835;42.930;25.178;2023-04-24T15:06:01;21.30;1.00
11559;DHT22;5835;42.930;25.178;2023-04-24T15:08:30;21.20;1.00
11559;DHT22;5835;42.930;25.178;2023-04-24T15:10:58;21.00;1.00
11559;DHT22;5835;42.930;25.178;2023-04-24T15:13:25;20.70;1.00
11559;DHT22;5835;42.930;25.178;2023-04-24T15:15:53;20.50;1.00
11559;DHT22;5835;42.930;25.178;2023-04-24T15:18:21;20.40;1.00
11559;DHT22;5835;42.930;25.178;2023-04-24T15:20:48;20.20;1.00
11559;DHT22;5835;42.930;25.178;2023-04-24T15:23:16;20.00;1.00
11559;DHT22;5835;42.930;25.178;2023-04-24T15:25:45;19.80;1.00
11559;DHT22;5835;42.930;25.178;2023-04-24T15:28:12;19.70;1.00
11559;DHT22;5835;42.930;25.178;2023-04-24T15:30:41;19.60;1.00
11559;DHT22;5835;42.930;25.178;2023-04-24T15:33:08;19.50;1.00
11559;DHT22;5835;42.930;25.178;2023-04-24T15:35:36;18.50;1.00
11559;DHT22;5835;42.930;25.178;2023-04-24T15:38:03;16.80;99.90
11559;DHT22;5835;42.930;25.178;2023-04-24T15:40:31;15.80;99.90
11559;DHT22;5835;42.930;25.178;2023-04-24T15:43:00;15.00;99.90
11559;DHT22;5835;42.930;25.178;2023-04-24T15:45:27;14.70;1.00
11559;DHT22;5835;42.930;25.178;2023-04-24T15:47:56;14.80;1.00
11559;DHT22;5835;42.930;25.178;2023-04-24T15:50:23;14.70;1.00
11559;DHT22;5835;42.930;25.178;2023-04-24T15:52:51;14.80;1.00
11559;DHT22;5835;42.930;25.178;2023-04-24T15:55:18;14.80;1.00